Aérodrome :
LOGIN :

S'inscrire | Disclaimer

   EN    FR    IT 

 










Légende :    VFR   VFR Marginal   IFR   IFR Intensif   IFR Très Intensif
Visi : 
Plafond : 
>= 8 km
>= 3000ft
5 à 8 km
1000 à 3000 ft
1500m à 5 km
500 à 1000 ft
800 à 1500m
200 à 500 ft
< 800m
< 200 ft
Symboles :   Orages  Brouillard  Fortes neiges  Fortes précipitations  Vent > 20 kt
SIGMETs :   Divers  Orages  Givrage  Turbulence  Onde Orograph.  Cendres Volcan.







- Altitude de l'aérodrome : 1906 ft
- Code IATA : INN


LOWI - Innsbruck

DERNIER METAR :
  • 190820Z 26010KT 9999 FEW065 14/05 Q1028 NOSIG

METARs EXPIRÉS :
  • 190750Z 27011KT 9999 FEW070 13/05 Q1028 NOSIG
  • 190720Z 27010KT 9999 FEW070 11/05 Q1029 NOSIG
  • 190650Z 28008KT 9999 FEW070 10/04 Q1029 NOSIG
  • 190620Z 27009KT 9999 FEW060 09/04 Q1029 NOSIG
  • 190550Z 29008KT 9999 FEW060 07/03 Q1029 NOSIG

TAF COR TAF LOWI
Valide du 19 à 06h jusqu'au 20 à 06h UTC


190528Z 1906/2006 27007KT 9999 FEW060 TX22/1914Z TN05/2004Z
BECMG 1908/1910 09006KT
TEMPO 1908/1920 11015G25KT SCT070
BECMG 1918/1920 27006KT CAVOK
Pas de NOTAMs connus pour ce terrain.



MET'MAP, la Météo Aéronautique d'un coup d'oeil ! - Copyright ORBIFLY Décembre 2007 - Disclaimer

ORBIFLY MET'MAP TEAM :

Programmation & Développement : Alexandra Zaïnal
Conception & Développement : Baudouin d'Aumeries
Co-Programmation & Développement : Marc-Olivier Méhu
Soutien technique & logistique : Manuel Goepfert

Contact : metmap@orbifly.com




SOURCES & CREDITS :

   NOAA